Terminal Aerodrome Forecast
Issued by NWS Pocatello, ID

Home | Current Version | Previous Version | Text Only | Print | Product List | Glossary On
Versions: 1 2 3 4 5 6 7 8 9 10 11 12 13 14 15 16 17
000
FTUS45 KPIH 220700 AAA
TAFBYI
TAF AMD
KBYI 220745Z 2208/2306 VRB06KT P6SM -SHRA VCTS SCT080CB OVC110
     FM221500 05008KT P6SM -SHRA BKN090 BKN160
     FM221800 18010KT P6SM -SHRA VCTS SCT070CB BKN100 BKN180
     FM222100 27015KT P6SM -SHRA VCTS BKN070CB BKN110 OVC180
     FM230000 28010KT P6SM VCTS FEW060CB SCT110 SCT180=

USA.gov is the U.S. government's official web portal to all federal, state and local government web resources and services.